createdAt,value
2022-11-14T00:01:33.639Z,19.27
2022-11-14T00:04:20.134Z,21.27
2022-11-14T00:07:06.864Z,19.10
2022-11-14T00:09:53.328Z,19.63
2022-11-14T00:12:41.231Z,22.33
2022-11-14T00:15:27.411Z,19.23
2022-11-14T00:18:13.634Z,19.00
2022-11-14T00:20:59.880Z,18.70
2022-11-14T00:23:46.135Z,18.50
2022-11-14T00:26:32.469Z,19.77
2022-11-14T00:29:20.106Z,19.80
2022-11-14T00:32:07.528Z,19.43
2022-11-14T00:34:54.197Z,20.00
2022-11-14T00:37:40.599Z,20.67
2022-11-14T00:40:27.102Z,19.40
2022-11-14T00:43:13.234Z,20.43
2022-11-14T00:46:00.957Z,20.97
2022-11-14T00:48:47.620Z,21.83
2022-11-14T00:51:33.841Z,22.00
2022-11-14T00:54:20.351Z,21.10
2022-11-14T00:57:06.568Z,20.33
2022-11-14T00:59:55.504Z,21.40
2022-11-14T01:02:43.331Z,20.00
2022-11-14T01:05:30.324Z,19.70
2022-11-14T01:08:18.341Z,20.87
2022-11-14T01:11:10.757Z,20.30
2022-11-14T01:13:56.964Z,20.73
2022-11-14T01:16:43.571Z,22.07
2022-11-14T01:19:31.196Z,22.20
2022-11-14T01:22:17.640Z,22.33
2022-11-14T01:25:03.919Z,24.10
2022-11-14T01:27:50.706Z,21.30
2022-11-14T01:30:37.481Z,22.93
2022-11-14T01:33:24.018Z,22.43
2022-11-14T01:36:11.939Z,22.37
2022-11-14T01:38:58.613Z,21.87
2022-11-14T01:41:44.901Z,22.33
2022-11-14T01:44:50.110Z,23.10
2022-11-14T01:47:37.184Z,21.80
2022-11-14T01:50:24.674Z,22.77
2022-11-14T01:53:12.318Z,22.73
2022-11-14T01:56:02.261Z,23.90
2022-11-14T01:58:53.083Z,23.07
2022-11-14T02:01:44.169Z,23.33
2022-11-14T02:04:33.788Z,22.63
2022-11-14T02:07:20.431Z,21.33
2022-11-14T02:10:11.727Z,23.60
2022-11-14T02:12:57.955Z,23.10
2022-11-14T02:15:44.296Z,22.70
2022-11-14T02:18:30.782Z,20.40
2022-11-14T02:21:18.600Z,21.40
2022-11-14T02:24:09.818Z,22.90
2022-11-14T02:26:56.083Z,23.37
2022-11-14T02:29:42.778Z,22.83
2022-11-14T02:32:35.921Z,25.47
2022-11-14T02:35:31.657Z,24.13
2022-11-14T02:38:19.186Z,22.13
2022-11-14T02:41:05.784Z,23.77
2022-11-14T02:43:52.098Z,23.10
2022-11-14T02:46:38.422Z,23.37
2022-11-14T02:49:24.612Z,23.90
2022-11-14T02:52:11.114Z,24.00
2022-11-14T02:54:58.445Z,23.03
2022-11-14T02:57:44.875Z,24.47
2022-11-14T03:00:31.308Z,29.10
2022-11-14T03:03:17.707Z,23.23
2022-11-14T03:06:05.666Z,24.60
2022-11-14T03:08:52.303Z,25.00
2022-11-14T03:11:40.141Z,23.90
2022-11-14T03:14:26.431Z,24.57
2022-11-14T03:17:12.988Z,25.73
2022-11-14T03:19:59.182Z,25.13
2022-11-14T03:22:45.451Z,24.53
2022-11-14T03:25:31.818Z,24.53
2022-11-14T03:28:19.314Z,24.03
2022-11-14T03:31:06.492Z,24.77
2022-11-14T03:33:53.050Z,24.60
2022-11-14T03:36:39.569Z,25.70
2022-11-14T03:39:26.045Z,22.67
2022-11-14T03:42:12.640Z,24.13
2022-11-14T03:45:00.096Z,24.20
2022-11-14T03:47:46.505Z,25.57
2022-11-14T03:50:32.877Z,26.80
2022-11-14T03:53:19.462Z,25.73
2022-11-14T03:56:06.545Z,25.80
2022-11-14T03:58:53.108Z,24.67
2022-11-14T04:01:40.862Z,25.10
2022-11-14T04:04:27.116Z,26.40
2022-11-14T04:07:13.458Z,24.73
2022-11-14T04:09:59.629Z,24.87
2022-11-14T04:12:49.710Z,24.47
2022-11-14T04:15:36.267Z,26.17
2022-11-14T04:18:24.688Z,26.07
2022-11-14T04:21:11.144Z,24.83
2022-11-14T04:23:57.404Z,26.10
2022-11-14T04:26:43.672Z,26.07
2022-11-14T04:29:29.866Z,26.57
2022-11-14T04:32:16.387Z,27.43
2022-11-14T04:35:04.150Z,25.27
2022-11-14T04:37:50.469Z,24.70
2022-11-14T04:40:36.698Z,26.20
2022-11-14T04:43:23.073Z,25.73
2022-11-14T04:46:09.323Z,25.63
2022-11-14T04:48:55.584Z,25.07
2022-11-14T04:51:43.122Z,25.07
2022-11-14T04:54:29.509Z,24.20
2022-11-14T04:57:16.499Z,24.27
2022-11-14T05:00:03.165Z,24.70
2022-11-14T05:02:49.638Z,22.40
2022-11-14T05:05:40.696Z,22.53
2022-11-14T05:08:30.197Z,22.13
2022-11-14T05:11:17.600Z,22.17
2022-11-14T05:14:04.185Z,24.03
2022-11-14T05:16:50.339Z,23.73
2022-11-14T05:19:36.636Z,21.03
2022-11-14T05:22:23.068Z,22.63
2022-11-14T05:25:11.574Z,21.33
2022-11-14T05:27:58.027Z,23.17
2022-11-14T05:30:44.227Z,21.87
2022-11-14T05:33:30.795Z,21.40
2022-11-14T05:36:18.120Z,23.07
2022-11-14T05:39:04.706Z,21.47
2022-11-14T05:41:52.180Z,23.33
2022-11-14T05:44:38.792Z,22.87
2022-11-14T05:47:25.237Z,23.77
2022-11-14T05:50:11.857Z,22.97
2022-11-14T05:52:58.347Z,23.27
2022-11-14T05:55:45.142Z,23.73
2022-11-14T05:58:34.049Z,22.53
2022-11-14T06:01:21.380Z,22.67
2022-11-14T06:04:08.069Z,20.47
2022-11-14T06:06:54.667Z,23.37
2022-11-14T06:09:41.107Z,22.63
2022-11-14T06:12:27.612Z,22.30
2022-11-14T06:15:15.327Z,24.63
2022-11-14T06:18:01.552Z,22.73
2022-11-14T06:20:47.892Z,22.90
2022-11-14T06:23:34.174Z,24.60
2022-11-14T06:26:23.762Z,24.43
2022-11-14T06:29:11.303Z,23.77
2022-11-14T06:31:59.123Z,23.33
2022-11-14T06:34:45.229Z,23.00
2022-11-14T06:37:33.667Z,21.80
2022-11-14T06:40:20.465Z,24.10
2022-11-14T06:43:06.706Z,23.33
2022-11-14T06:45:54.829Z,21.87
2022-11-14T06:48:43.400Z,21.50
2022-11-14T06:51:29.819Z,22.93
2022-11-14T06:54:16.138Z,23.50
2022-11-14T06:57:02.851Z,22.23
2022-11-14T06:59:49.275Z,22.33
2022-11-14T07:02:35.768Z,23.33
2022-11-14T07:05:23.344Z,23.43
2022-11-14T07:08:10.083Z,21.77
2022-11-14T07:11:02.551Z,21.60
2022-11-14T07:13:49.131Z,22.30
2022-11-14T07:16:36.521Z,21.00
2022-11-14T07:19:23.102Z,22.93
2022-11-14T07:22:10.714Z,21.13
2022-11-14T07:24:57.013Z,20.43
2022-11-14T07:27:43.443Z,21.27
2022-11-14T07:30:29.938Z,21.03
2022-11-14T07:33:16.045Z,20.27
2022-11-14T07:36:02.591Z,19.27
2022-11-14T07:38:50.358Z,18.93
2022-11-14T07:41:36.883Z,18.40
2022-11-14T07:44:23.232Z,17.70
2022-11-14T07:47:09.496Z,19.77
2022-11-14T07:49:55.679Z,18.53
2022-11-14T07:52:42.325Z,20.23
2022-11-14T07:55:30.156Z,19.97
2022-11-14T07:58:16.705Z,19.90
2022-11-14T08:01:04.099Z,20.47
2022-11-14T08:03:50.399Z,19.40
2022-11-14T08:06:36.619Z,18.63
2022-11-14T08:09:23.531Z,17.90
2022-11-14T08:12:11.031Z,18.43
2022-11-14T08:14:57.598Z,18.53
2022-11-14T08:17:43.831Z,19.40
2022-11-14T08:20:30.139Z,20.23
2022-11-14T08:23:16.649Z,19.83
2022-11-14T08:26:03.004Z,18.27
2022-11-14T08:28:53.762Z,19.20
2022-11-14T08:31:40.187Z,20.50
2022-11-14T08:34:26.625Z,21.17
2022-11-14T08:37:12.948Z,21.70
2022-11-14T08:39:59.088Z,22.40
2022-11-14T08:42:45.627Z,21.70
2022-11-14T08:45:33.168Z,21.70
2022-11-14T08:48:19.665Z,23.37
2022-11-14T08:51:07.587Z,23.93
2022-11-14T08:53:54.102Z,23.27
2022-11-14T08:56:40.339Z,22.93
2022-11-14T08:59:26.785Z,22.37
2022-11-14T09:02:15.109Z,23.30
2022-11-14T09:05:01.723Z,22.30
2022-11-14T09:07:48.100Z,23.93
2022-11-14T09:10:35.185Z,23.03
2022-11-14T09:13:22.241Z,21.60
2022-11-14T09:16:09.359Z,20.30
2022-11-14T09:18:57.211Z,19.40
2022-11-14T09:21:44.092Z,19.73
2022-11-14T09:24:30.720Z,18.43
2022-11-14T09:27:17.193Z,20.13
2022-11-14T09:30:04.616Z,19.60
2022-11-14T09:32:51.278Z,20.47
2022-11-14T09:35:39.072Z,19.20
2022-11-14T09:38:25.435Z,18.67
2022-11-14T09:41:25.426Z,19.17
2022-11-14T09:44:47.491Z,20.20
2022-11-14T09:47:40.111Z,19.23
2022-11-14T09:50:31.401Z,19.63
2022-11-14T09:53:26.634Z,19.03
2022-11-14T09:56:14.411Z,20.40
2022-11-14T09:59:00.659Z,18.37
2022-11-14T10:01:56.618Z,19.63
2022-11-14T10:04:57.515Z,34.53
2022-11-14T10:08:07.310Z,17.83
2022-11-14T10:10:56.875Z,17.73
2022-11-14T10:13:56.820Z,18.53
2022-11-14T10:16:52.823Z,18.27
2022-11-14T10:19:47.884Z,19.40
2022-11-14T10:22:50.845Z,18.50
2022-11-14T10:25:48.799Z,17.80
2022-11-14T10:28:47.743Z,19.73
2022-11-14T10:31:45.075Z,19.73
2022-11-14T10:34:35.479Z,18.07
2022-11-14T10:37:27.919Z,18.10
2022-11-14T10:40:20.776Z,18.63
2022-11-14T10:43:24.465Z,19.20
2022-11-14T10:46:15.648Z,18.43
2022-11-14T10:49:02.411Z,19.17
2022-11-14T10:51:53.682Z,20.27
2022-11-14T10:54:45.114Z,29.17
2022-11-14T10:57:31.639Z,19.77
2022-11-14T11:00:20.594Z,18.27
2022-11-14T11:03:08.672Z,17.90
2022-11-14T11:05:57.529Z,20.17
2022-11-14T11:09:06.730Z,18.37
2022-11-14T11:11:56.465Z,19.50
2022-11-14T11:14:43.445Z,18.27
2022-11-14T11:17:37.106Z,20.43
2022-11-14T11:20:32.178Z,18.80
2022-11-14T11:23:22.814Z,17.50
2022-11-14T11:26:18.476Z,17.33
2022-11-14T11:29:08.836Z,18.10
2022-11-14T11:31:57.935Z,17.90
2022-11-14T11:34:44.683Z,17.77
2022-11-14T11:37:39.905Z,17.83
2022-11-14T11:40:28.711Z,17.30
2022-11-14T11:46:31.234Z,16.77
2022-11-14T11:49:24.714Z,17.00
2022-11-14T11:52:14.860Z,16.97
2022-11-14T11:55:14.184Z,17.17
2022-11-14T11:58:06.275Z,16.80
2022-11-14T12:00:55.115Z,14.90
2022-11-14T12:03:43.778Z,16.93
2022-11-14T12:06:36.257Z,16.90
2022-11-14T12:09:42.579Z,16.47
2022-11-14T12:12:50.925Z,16.23
2022-11-14T12:15:48.688Z,15.70
2022-11-14T12:18:53.570Z,16.30
2022-11-14T12:21:58.907Z,17.33
2022-11-14T12:25:15.154Z,15.93
2022-11-14T12:28:18.367Z,16.10
2022-11-14T12:31:07.032Z,15.23
2022-11-14T12:34:00.037Z,15.57
2022-11-14T12:36:47.013Z,16.33
2022-11-14T12:39:33.848Z,15.90
2022-11-14T12:42:22.483Z,15.33
2022-11-14T12:45:44.735Z,14.27
2022-11-14T12:48:35.166Z,13.40
2022-11-14T12:51:49.651Z,13.83
2022-11-14T12:54:46.955Z,12.40
2022-11-14T12:57:49.511Z,12.60
2022-11-14T13:00:38.590Z,11.80
2022-11-14T13:03:47.145Z,10.83
2022-11-14T13:06:44.974Z,10.60
2022-11-14T13:09:40.742Z,10.47
2022-11-14T13:12:50.202Z,11.07
2022-11-14T13:16:09.369Z,9.87
2022-11-14T13:19:34.618Z,10.90
2022-11-14T13:22:39.744Z,10.10
2022-11-14T13:25:26.494Z,9.23
2022-11-14T13:28:48.738Z,9.23
2022-11-14T13:31:48.036Z,9.70
2022-11-14T13:34:42.588Z,10.00
2022-11-14T13:37:49.572Z,9.37
2022-11-14T13:40:42.753Z,10.47
2022-11-14T13:43:43.624Z,9.43
2022-11-14T13:46:45.386Z,9.23
2022-11-14T13:49:46.687Z,9.93
2022-11-14T13:52:35.028Z,9.37
2022-11-14T13:55:23.237Z,9.13
2022-11-14T13:58:23.656Z,10.33
2022-11-14T14:01:22.743Z,9.60
2022-11-14T14:04:21.679Z,9.53
2022-11-14T14:07:19.366Z,9.93
2022-11-14T14:10:16.773Z,9.57
2022-11-14T14:13:17.323Z,10.00
2022-11-14T14:16:10.321Z,11.03
2022-11-14T14:19:05.573Z,9.37
2022-11-14T14:21:58.141Z,9.60
2022-11-14T14:24:56.400Z,8.83
2022-11-14T14:27:53.888Z,9.63
2022-11-14T14:30:40.404Z,9.03
2022-11-14T14:33:26.843Z,9.60
2022-11-14T14:36:22.201Z,9.50
2022-11-14T14:39:18.182Z,9.07
2022-11-14T14:42:12.082Z,9.57
2022-11-14T14:44:59.585Z,9.70
2022-11-14T14:47:49.211Z,10.63
2022-11-14T14:50:40.687Z,9.70
2022-11-14T14:53:28.617Z,10.93
2022-11-14T14:56:20.454Z,11.10
2022-11-14T14:59:19.144Z,11.37
2022-11-14T15:02:10.412Z,10.40
2022-11-14T15:04:59.792Z,12.03
2022-11-14T15:07:46.363Z,11.90
2022-11-14T15:10:33.304Z,12.30
2022-11-14T15:13:20.670Z,11.30
2022-11-14T15:16:10.093Z,10.90
2022-11-14T15:18:58.195Z,10.40
2022-11-14T15:21:44.584Z,10.57
2022-11-14T15:24:31.629Z,11.20
2022-11-14T15:27:19.374Z,10.80
2022-11-14T15:30:08.522Z,11.27
2022-11-14T15:32:58.277Z,11.73
2022-11-14T15:35:44.788Z,11.13
2022-11-14T15:38:43.910Z,11.57
2022-11-14T15:41:32.123Z,11.93
2022-11-14T15:44:31.867Z,12.40
2022-11-14T15:47:24.413Z,12.37
2022-11-14T15:50:31.528Z,14.85
2022-11-14T15:53:23.466Z,12.37
2022-11-14T15:56:12.299Z,11.47
2022-11-14T15:58:58.604Z,11.03
2022-11-14T16:01:46.832Z,11.07
2022-11-14T16:04:36.602Z,11.60
2022-11-14T16:07:24.315Z,10.70
2022-11-14T16:10:16.064Z,10.80
2022-11-14T16:13:02.716Z,11.90
2022-11-14T16:15:49.139Z,11.20
2022-11-14T16:18:35.332Z,11.27
2022-11-14T16:21:21.755Z,11.73
2022-11-14T16:24:15.722Z,10.87
2022-11-14T16:27:02.478Z,11.70
2022-11-14T16:29:49.082Z,10.80
2022-11-14T16:32:35.339Z,11.77
2022-11-14T16:35:23.297Z,11.27
2022-11-14T16:38:13.238Z,10.27
2022-11-14T16:41:01.106Z,11.30
2022-11-14T16:43:47.319Z,11.07
2022-11-14T16:46:33.800Z,11.80
2022-11-14T16:49:20.512Z,11.80
2022-11-14T16:52:08.509Z,12.10
2022-11-14T16:54:55.165Z,11.50
2022-11-14T16:57:43.035Z,12.17
2022-11-14T17:00:29.416Z,11.70
2022-11-14T17:03:15.639Z,11.53
2022-11-14T17:06:02.192Z,11.20
2022-11-14T17:08:48.734Z,12.83
2022-11-14T17:11:35.162Z,11.90
2022-11-14T17:14:22.787Z,12.03
2022-11-14T17:17:09.118Z,12.10
2022-11-14T17:19:55.419Z,11.93
2022-11-14T17:22:42.119Z,10.33
2022-11-14T17:25:28.280Z,12.40
2022-11-14T17:28:14.692Z,12.73
2022-11-14T17:31:07.428Z,11.67
2022-11-14T17:33:55.117Z,12.63
2022-11-14T17:36:41.574Z,12.17
2022-11-14T17:39:28.095Z,13.10
2022-11-14T17:42:14.444Z,13.00
2022-11-14T17:45:00.938Z,11.80
2022-11-14T17:47:48.603Z,11.50
2022-11-14T17:50:38.804Z,11.47
2022-11-14T17:53:25.451Z,10.73
2022-11-14T17:56:15.017Z,11.50
2022-11-14T17:59:01.246Z,10.50
2022-11-14T18:01:48.257Z,10.83
2022-11-14T18:04:35.991Z,9.77
2022-11-14T18:07:22.492Z,10.00
2022-11-14T18:10:09.631Z,10.17
2022-11-14T18:12:56.128Z,9.83
2022-11-14T18:15:42.214Z,10.20
2022-11-14T18:18:30.755Z,9.93
2022-11-14T18:21:20.940Z,10.30
2022-11-14T18:24:12.916Z,10.27
2022-11-14T18:26:59.945Z,10.00
2022-11-14T18:29:46.418Z,9.90
2022-11-14T18:32:32.883Z,9.73
2022-11-14T18:35:19.439Z,11.00
2022-11-14T18:38:07.070Z,10.23
2022-11-14T18:40:57.535Z,9.90
2022-11-14T18:43:45.288Z,10.03
2022-11-14T18:46:36.039Z,10.20
2022-11-14T18:49:23.851Z,12.47
2022-11-14T18:52:15.841Z,11.90
2022-11-14T18:55:05.351Z,10.60
2022-11-14T18:57:51.849Z,10.37
2022-11-14T19:00:38.316Z,9.90
2022-11-14T19:03:25.010Z,10.07
2022-11-14T19:06:12.763Z,9.73
2022-11-14T19:08:59.896Z,10.17
2022-11-14T19:12:04.819Z,9.53
2022-11-14T19:14:52.835Z,10.37
2022-11-14T19:17:39.248Z,10.27
2022-11-14T19:20:25.523Z,10.73
2022-11-14T19:23:13.084Z,9.90
2022-11-14T19:26:00.736Z,10.00
2022-11-14T19:28:49.480Z,10.20
2022-11-14T19:31:36.132Z,9.87
2022-11-14T19:34:22.556Z,10.10
2022-11-14T19:37:09.000Z,10.67
2022-11-14T19:39:55.442Z,10.47
2022-11-14T19:42:42.150Z,9.90
2022-11-14T19:45:29.712Z,9.77
2022-11-14T19:48:16.254Z,10.10
2022-11-14T19:51:03.889Z,10.77
2022-11-14T19:53:50.719Z,10.10
2022-11-14T19:56:37.889Z,10.70
2022-11-14T19:59:27.824Z,9.73
2022-11-14T20:02:15.876Z,10.10
2022-11-14T20:05:02.364Z,11.53
2022-11-14T20:07:48.711Z,11.27
2022-11-14T20:10:47.501Z,10.97
2022-11-14T20:13:35.100Z,11.30
2022-11-14T20:16:23.233Z,11.07
2022-11-14T20:19:10.908Z,11.67
2022-11-14T20:21:57.377Z,11.27
2022-11-14T20:24:43.753Z,10.67
2022-11-14T20:27:30.372Z,11.93
2022-11-14T20:30:16.908Z,12.10
2022-11-14T20:33:03.484Z,11.40
2022-11-14T20:35:50.967Z,12.23
2022-11-14T20:38:37.333Z,11.27
2022-11-14T20:41:23.798Z,10.53
2022-11-14T20:44:10.545Z,11.67
2022-11-14T20:46:57.237Z,11.27
2022-11-14T20:49:44.244Z,11.70
2022-11-14T20:52:31.863Z,10.90
2022-11-14T20:55:18.323Z,12.07
2022-11-14T20:58:04.804Z,11.63
2022-11-14T21:00:51.520Z,11.93
2022-11-14T21:03:38.750Z,12.13
2022-11-14T21:06:25.241Z,11.70
2022-11-14T21:09:12.978Z,12.20
2022-11-14T21:11:59.352Z,11.67
2022-11-14T21:14:45.652Z,11.63
2022-11-14T21:17:32.384Z,11.53
2022-11-14T21:20:19.007Z,11.47
2022-11-14T21:23:05.367Z,11.73
2022-11-14T21:25:52.858Z,10.83
2022-11-14T21:28:41.193Z,12.50
2022-11-14T21:31:31.464Z,11.23
2022-11-14T21:34:18.516Z,12.50
2022-11-14T21:37:04.989Z,11.73
2022-11-14T21:39:51.336Z,11.13
2022-11-14T21:42:39.779Z,11.97
2022-11-14T21:45:26.476Z,12.90
2022-11-14T21:48:12.640Z,12.50
2022-11-14T21:51:07.046Z,12.07
2022-11-14T21:53:58.151Z,12.40
2022-11-14T21:56:44.526Z,13.10
2022-11-14T21:59:32.204Z,12.13
2022-11-14T22:02:36.032Z,13.03
2022-11-14T22:05:22.530Z,11.40
2022-11-14T22:08:09.188Z,12.23
2022-11-14T22:11:01.575Z,10.93
2022-11-14T22:13:47.744Z,12.07
2022-11-14T22:16:35.412Z,11.83
2022-11-14T22:19:21.701Z,13.40
2022-11-14T22:22:07.906Z,11.60
2022-11-14T22:24:54.543Z,11.27
2022-11-14T22:27:40.966Z,12.07
2022-11-14T22:30:27.344Z,11.83
2022-11-14T22:33:15.019Z,11.73
2022-11-14T22:36:10.196Z,12.60
2022-11-14T22:38:57.628Z,12.80
2022-11-14T22:41:44.165Z,13.10
2022-11-14T22:44:30.399Z,12.23
2022-11-14T22:47:16.643Z,12.40
2022-11-14T22:50:05.110Z,13.40
2022-11-14T22:52:51.382Z,13.20
2022-11-14T22:55:37.477Z,13.73
2022-11-14T22:58:24.713Z,15.57
2022-11-14T23:01:12.432Z,12.10
2022-11-14T23:04:01.033Z,11.80
2022-11-14T23:06:48.764Z,14.00
2022-11-14T23:09:35.348Z,12.90
2022-11-14T23:12:21.559Z,12.97
2022-11-14T23:15:08.683Z,12.00
2022-11-14T23:17:55.151Z,12.50
2022-11-14T23:20:41.546Z,12.90
2022-11-14T23:23:29.539Z,12.30
2022-11-14T23:26:18.148Z,12.03
2022-11-14T23:29:05.626Z,12.93
2022-11-14T23:31:51.904Z,12.53
2022-11-14T23:34:38.106Z,11.83
2022-11-14T23:37:24.527Z,11.40
2022-11-14T23:40:12.775Z,12.20
2022-11-14T23:42:59.281Z,11.03
2022-11-14T23:45:45.582Z,12.23
2022-11-14T23:48:32.020Z,12.97
2022-11-14T23:51:18.444Z,12.77
2022-11-14T23:54:05.040Z,10.83
2022-11-14T23:56:52.642Z,13.97
2022-11-14T23:59:39.037Z,12.40
